Olympic Natl Park, Washington
Current Conditions -  °F | °C
As of 11:53 AM on Sunday 21 Dec 2014 (Local Time) from KCLM Reporting Station
Overcast Overcast  
Wind Chill: 51°   Ceiling: 4500
Heat Index: 51°   Visibility: 10mi
Dew Point: 44°   Wind: 7mph
Humidity: 77%   Direction: 220°SW
Pressure: 29.93"   Gusts: NA
Location:  47.8°N, 123.5°W
Report Text: KCLM 211953Z AUTO 22006KT 10SM FEW037 BKN045 OVC055 11/07 A2993 RMK AO2 RAB25E52 SLP138 P0000 T01060067 TSNO $
Loading
Personal Weather Stations






























Interactive Weather Map New forecast layout! Learn more

10-Day Weather Forecast

Advertisements
Track Severe Weather on mobile